Time;durP1;ratioP1;P1;durP2;ratioP2;P2;SDS_P1;SDS_P2;PMS_P1;PMS_P2;Temp;Humidity;BMP_temperature;BMP_pressure;BME280_temperature;BME280_humidity;BME280_pressure;Samples;Min_cycle;Max_cycle;Signal;HPM_P1;HPM_P2
2023/08/05 00:00:02;;;;;;;93.07;87.65;;;;;;;;;;4738708;30;20048;-91
2023/08/05 00:02:28;;;;;;;93.20;87.80;;;;;;;;;;4741118;30;20044;-91
2023/08/05 00:04:55;;;;;;;97.18;91.68;;;;;;;;;;4741303;30;20040;-92
2023/08/05 00:07:21;;;;;;;95.10;89.85;;;;;;;;;;4740751;30;20040;-90
2023/08/05 00:09:47;;;;;;;101.82;96.15;;;;;;;;;;4740826;30;20044;-91
2023/08/05 00:12:13;;;;;;;96.60;91.28;;;;;;;;;;4740713;30;20066;-89
2023/08/05 00:14:39;;;;;;;103.55;97.25;;;;;;;;;;4740727;30;20097;-91
2023/08/05 00:17:05;;;;;;;106.28;100.32;;;;;;;;;;4740887;30;20055;-92
2023/08/05 00:19:31;;;;;;;107.45;101.38;;;;;;;;;;4740401;30;20040;-91
2023/08/05 00:21:58;;;;;;;105.32;99.68;;;;;;;;;;4740978;30;20035;-91
2023/08/05 00:24:24;;;;;;;106.78;100.65;;;;;;;;;;4740444;30;20032;-90
2023/08/05 00:26:50;;;;;;;101.85;96.40;;;;;;;;;;4740235;30;20559;-91
2023/08/05 00:29:16;;;;;;;104.50;98.57;;;;;;;;;;4740429;30;20042;-92
2023/08/05 00:31:42;;;;;;;106.07;100.18;;;;;;;;;;4740424;30;20109;-91
2023/08/05 00:34:08;;;;;;;113.85;107.65;;;;;;;;;;4740442;30;20032;-92
2023/08/05 00:36:35;;;;;;;110.63;104.63;;;;;;;;;;4740440;30;20036;-89
2023/08/05 00:39:07;;;;;;;113.03;106.80;;;;;;;;;;4740520;30;20398;-90
2023/08/05 00:41:34;;;;;;;105.80;99.97;;;;;;;;;;4753660;30;20039;-91
2023/08/05 00:44:00;;;;;;;107.00;101.10;;;;;;;;;;4728780;30;20065;-91
2023/08/05 00:46:26;;;;;;;105.88;99.85;;;;;;;;;;4720069;30;20063;-92
2023/08/05 00:48:53;;;;;;;108.60;102.68;;;;;;;;;;4720288;30;20033;-91
2023/08/05 00:51:20;;;;;;;109.47;103.65;;;;;;;;;;4750579;30;20033;-90
2023/08/05 00:53:56;;;;;;;106.32;100.45;;;;;;;;;;4758459;30;20044;-92
2023/08/05 00:56:22;;;;;;;101.07;95.65;;;;;;;;;;4751920;30;20032;-91
2023/08/05 00:58:51;;;;;;;99.78;94.15;;;;;;;;;;4741155;30;20094;-92
2023/08/05 01:01:19;;;;;;;104.15;98.47;;;;;;;;;;4736947;30;20045;-91
2023/08/05 01:03:51;;;;;;;96.68;91.35;;;;;;;;;;4736867;30;20029;-91
2023/08/05 01:09:21;;;;;;;99.18;93.80;;;;;;;;;;4737991;30;20122;-92
2023/08/05 01:11:47;;;;;;;102.57;96.75;;;;;;;;;;4735864;30;20044;-90
2023/08/05 01:14:17;;;;;;;99.18;93.78;;;;;;;;;;4736799;30;20036;-92
2023/08/05 01:16:43;;;;;;;100.90;95.65;;;;;;;;;;4737054;30;20036;-92
2023/08/05 01:19:12;;;;;;;102.90;97.10;;;;;;;;;;4724589;30;20412;-92
2023/08/05 01:21:44;;;;;;;93.80;88.68;;;;;;;;;;4719305;30;20029;-91
2023/08/05 01:24:19;;;;;;;107.13;101.20;;;;;;;;;;4719118;30;20071;-90
2023/08/05 01:26:47;;;;;;;102.57;96.78;;;;;;;;;;4718846;30;20044;-88
2023/08/05 01:29:21;;;;;;;105.95;99.68;;;;;;;;;;4719057;30;20072;-92
2023/08/05 01:31:55;;;;;;;97.28;91.68;;;;;;;;;;4719229;30;20068;-90
2023/08/05 01:34:21;;;;;;;105.07;99.45;;;;;;;;;;4719068;30;20029;-90
2023/08/05 01:36:47;;;;;;;102.47;96.88;;;;;;;;;;4726331;30;20041;-91
2023/08/05 01:39:22;;;;;;;109.75;103.75;;;;;;;;;;4729140;30;20048;-92
2023/08/05 01:41:54;;;;;;;107.40;101.43;;;;;;;;;;4736344;30;20035;-91
2023/08/05 01:44:20;;;;;;;114.43;108.05;;;;;;;;;;4742710;30;20059;-91
2023/08/05 01:47:07;;;;;;;110.90;104.85;;;;;;;;;;4739180;30;20064;-92
2023/08/05 01:49:35;;;;;;;111.80;105.45;;;;;;;;;;4738071;30;20415;-92
2023/08/05 01:52:07;;;;;;;115.93;109.47;;;;;;;;;;4736477;30;20028;-92
2023/08/05 01:54:39;;;;;;;112.32;106.30;;;;;;;;;;4736208;30;20032;-92
2023/08/05 01:57:09;;;;;;;108.53;102.57;;;;;;;;;;4736418;30;20033;-92
2023/08/05 01:59:35;;;;;;;106.90;101.03;;;;;;;;;;4736024;30;20048;-92
2023/08/05 02:02:04;;;;;;;109.30;102.40;;;;;;;;;;4736068;30;20028;-92
2023/08/05 02:04:57;;;;;;;110.35;104.20;;;;;;;;;;4735922;30;20060;-91
2023/08/05 02:07:23;;;;;;;101.45;95.85;;;;;;;;;;4735157;30;20040;-90
2023/08/05 02:09:52;;;;;;;109.13;103.32;;;;;;;;;;4718157;30;20072;-92
2023/08/05 02:12:24;;;;;;;104.68;99.03;;;;;;;;;;4718622;30;20033;-92
2023/08/05 02:14:50;;;;;;;111.80;105.50;;;;;;;;;;4718475;30;20037;-92
2023/08/05 02:17:20;;;;;;;109.22;103.07;;;;;;;;;;4732041;30;20057;-92
2023/08/05 02:19:46;;;;;;;112.60;105.68;;;;;;;;;;4735400;30;20411;-92
2023/08/05 02:22:12;;;;;;;92.70;87.60;;;;;;;;;;4735450;30;20462;-92
2023/08/05 02:24:41;;;;;;;105.72;99.72;;;;;;;;;;4735396;30;20039;-91
2023/08/05 02:27:07;;;;;;;115.07;108.80;;;;;;;;;;4735475;30;20032;-91
2023/08/05 02:29:33;;;;;;;106.70;100.88;;;;;;;;;;4728599;30;20033;-91
2023/08/05 02:31:59;;;;;;;99.80;94.25;;;;;;;;;;4718509;30;20041;-92
2023/08/05 02:34:25;;;;;;;109.20;103.07;;;;;;;;;;4718630;30;20036;-92
2023/08/05 02:36:52;;;;;;;106.75;100.80;;;;;;;;;;4726209;30;20067;-91
2023/08/05 02:39:18;;;;;;;111.03;104.82;;;;;;;;;;4735364;30;20040;-92
2023/08/05 02:41:46;;;;;;;106.55;100.68;;;;;;;;;;4735497;30;20033;-92
2023/08/05 02:44:13;;;;;;;107.95;102.05;;;;;;;;;;4720744;30;20448;-91
2023/08/05 02:46:39;;;;;;;116.57;110.30;;;;;;;;;;4735642;30;20040;-91
2023/08/05 02:49:08;;;;;;;118.40;111.72;;;;;;;;;;4735407;30;20479;-91
2023/08/05 02:51:34;;;;;;;110.60;104.43;;;;;;;;;;4735743;30;20510;-91
2023/08/05 02:54:00;;;;;;;125.82;118.90;;;;;;;;;;4735517;30;20130;-91
2023/08/05 02:56:26;;;;;;;113.38;107.15;;;;;;;;;;4737279;30;20041;-90
2023/08/05 02:58:53;;;;;;;112.60;106.47;;;;;;;;;;4735690;30;20040;-93
2023/08/05 03:01:21;;;;;;;107.38;101.57;;;;;;;;;;4734955;30;20398;-91
2023/08/05 03:03:50;;;;;;;108.93;102.93;;;;;;;;;;4735164;30;20091;-92
2023/08/05 03:06:17;;;;;;;97.82;92.45;;;;;;;;;;4735568;30;20132;-91
2023/08/05 03:08:43;;;;;;;108.57;102.65;;;;;;;;;;4735643;30;20064;-93
2023/08/05 03:11:09;;;;;;;117.78;111.15;;;;;;;;;;4735481;30;20035;-90
2023/08/05 03:13:38;;;;;;;115.47;108.95;;;;;;;;;;4725836;30;20116;-91
2023/08/05 03:16:14;;;;;;;111.75;105.65;;;;;;;;;;4717635;30;20038;-92
2023/08/05 03:18:43;;;;;;;120.78;114.20;;;;;;;;;;4717350;30;20105;-92
2023/08/05 03:24:28;;;;;;;122.20;115.47;;;;;;;;;;4719158;30;20047;-90
2023/08/05 03:26:54;;;;;;;118.55;111.97;;;;;;;;;;4717469;30;20048;-90
2023/08/05 03:29:21;;;;;;;124.38;117.35;;;;;;;;;;4717478;30;20079;-91
2023/08/05 03:31:47;;;;;;;129.27;122.18;;;;;;;;;;4717421;30;20037;-92
2023/08/05 03:34:19;;;;;;;129.15;121.93;;;;;;;;;;4717367;30;20029;-92
2023/08/05 03:36:48;;;;;;;128.67;121.70;;;;;;;;;;4722092;30;20449;-92
2023/08/05 03:39:14;;;;;;;137.75;130.48;;;;;;;;;;4745620;30;20330;-91
2023/08/05 03:41:48;;;;;;;135.20;127.93;;;;;;;;;;4727455;30;20061;-92
2023/08/05 03:44:19;;;;;;;133.13;126.03;;;;;;;;;;4720013;30;20057;-91
2023/08/05 03:46:48;;;;;;;137.07;129.63;;;;;;;;;;4719866;30;20460;-92
2023/08/05 03:49:35;;;;;;;139.77;132.20;;;;;;;;;;4719820;30;20091;-91
2023/08/05 03:52:07;;;;;;;138.88;131.18;;;;;;;;;;4746492;30;20124;-92
2023/08/05 03:54:42;;;;;;;140.30;132.70;;;;;;;;;;4757492;30;20020;-92
2023/08/05 03:57:09;;;;;;;136.50;129.18;;;;;;;;;;4751047;30;20040;-91
2023/08/05 03:59:42;;;;;;;138.15;130.60;;;;;;;;;;4722235;30;20560;-93
2023/08/05 04:02:09;;;;;;;137.27;129.65;;;;;;;;;;4719307;30;20033;-91
2023/08/05 04:04:36;;;;;;;135.45;128.10;;;;;;;;;;4720038;30;20079;-92
2023/08/05 04:07:09;;;;;;;131.15;123.63;;;;;;;;;;4720004;30;20056;-92
2023/08/05 04:09:36;;;;;;;140.25;132.73;;;;;;;;;;4719460;30;20049;-91
2023/08/05 04:12:05;;;;;;;144.60;136.90;;;;;;;;;;4719445;30;20033;-92
2023/08/05 04:14:52;;;;;;;143.45;135.55;;;;;;;;;;4719030;30;20127;-91
2023/08/05 04:17:24;;;;;;;145.00;137.20;;;;;;;;;;4718942;30;20044;-91
2023/08/05 04:19:50;;;;;;;148.10;139.88;;;;;;;;;;4719542;30;20041;-92
2023/08/05 04:22:20;;;;;;;152.15;143.75;;;;;;;;;;4720452;30;20123;-91
2023/08/05 04:24:46;;;;;;;143.68;135.57;;;;;;;;;;4720281;30;20037;-90
2023/08/05 04:27:16;;;;;;;149.65;141.73;;;;;;;;;;4719979;30;20041;-92
2023/08/05 04:29:42;;;;;;;146.13;138.20;;;;;;;;;;4719454;30;20040;-91
2023/08/05 04:32:08;;;;;;;145.55;137.52;;;;;;;;;;4719572;30;20190;-93
2023/08/05 04:34:37;;;;;;;149.52;141.27;;;;;;;;;;4719002;30;20178;-92
2023/08/05 04:37:35;;;;;;;148.00;139.93;;;;;;;;;;4719192;30;20033;-91
2023/08/05 04:40:01;;;;;;;148.68;140.70;;;;;;;;;;4721737;30;20041;-92
2023/08/05 04:42:27;;;;;;;156.63;148.13;;;;;;;;;;4719458;30;20033;-90
2023/08/05 04:45:55;;;;;;;157.43;148.77;;;;;;;;;;5112327;27;20388;-90
2023/08/05 04:48:21;;;;;;;149.27;141.23;;;;;;;;;;5091234;28;20086;-91
2023/08/05 04:50:47;;;;;;;163.82;154.73;;;;;;;;;;5090752;28;20031;-91
2023/08/05 04:53:19;;;;;;;160.07;151.25;;;;;;;;;;5090844;28;20078;-90
2023/08/05 04:55:45;;;;;;;150.20;142.02;;;;;;;;;;5090776;28;20052;-90
2023/08/05 04:58:14;;;;;;;170.15;161.07;;;;;;;;;;5090779;28;20111;-91
2023/08/05 05:00:40;;;;;;;158.82;149.82;;;;;;;;;;5090336;28;20027;-91
2023/08/05 05:03:07;;;;;;;149.40;140.90;;;;;;;;;;5090506;28;20473;-91
2023/08/05 05:05:35;;;;;;;171.43;161.82;;;;;;;;;;5090784;28;20040;-94
2023/08/05 05:08:02;;;;;;;156.95;148.07;;;;;;;;;;5090502;28;20055;-91
2023/08/05 05:10:28;;;;;;;186.52;176.10;;;;;;;;;;5090656;28;20028;-89
2023/08/05 05:12:56;;;;;;;186.32;175.85;;;;;;;;;;5090476;28;20060;-90
2023/08/05 05:15:23;;;;;;;162.88;153.82;;;;;;;;;;5090118;28;20056;-91
2023/08/05 05:17:50;;;;;;;172.63;163.02;;;;;;;;;;5086712;28;20033;-92
2023/08/05 05:20:17;;;;;;;176.10;166.32;;;;;;;;;;5069408;28;20037;-92
2023/08/05 05:22:46;;;;;;;152.82;144.38;;;;;;;;;;5071674;28;20051;-90
2023/08/05 05:25:18;;;;;;;165.95;156.55;;;;;;;;;;5084037;28;20489;-92
2023/08/05 05:27:47;;;;;;;170.45;161.07;;;;;;;;;;5090557;28;20055;-91
2023/08/05 05:30:15;;;;;;;182.40;172.48;;;;;;;;;;5090029;28;20028;-93
2023/08/05 05:32:42;;;;;;;160.88;152.00;;;;;;;;;;5089945;28;20056;-92
2023/08/05 05:35:11;;;;;;;168.00;158.68;;;;;;;;;;5096488;28;20029;-93
2023/08/05 05:37:43;;;;;;;171.05;161.52;;;;;;;;;;5092033;28;20024;-92
2023/08/05 05:40:15;;;;;;;167.87;158.63;;;;;;;;;;5090093;28;20166;-92
2023/08/05 05:42:44;;;;;;;154.48;145.65;;;;;;;;;;5090641;28;20020;-92
2023/08/05 05:45:10;;;;;;;182.90;172.88;;;;;;;;;;5088222;28;20052;-92
2023/08/05 05:47:36;;;;;;;154.80;146.27;;;;;;;;;;5089891;28;20024;-90
2023/08/05 05:50:03;;;;;;;172.02;162.57;;;;;;;;;;5072039;28;20036;-91
2023/08/05 05:52:35;;;;;;;169.23;159.63;;;;;;;;;;5069216;28;20052;-91
2023/08/05 05:55:03;;;;;;;153.00;144.50;;;;;;;;;;5075787;28;20036;-90
2023/08/05 05:57:29;;;;;;;183.00;172.93;;;;;;;;;;5073867;28;20033;-91
2023/08/05 05:59:58;;;;;;;187.07;176.85;;;;;;;;;;5063978;28;20037;-89
2023/08/05 06:02:24;;;;;;;188.43;178.05;;;;;;;;;;5066076;28;20029;-89
2023/08/05 06:04:50;;;;;;;195.07;184.18;;;;;;;;;;5056144;28;20063;-89
2023/08/05 06:07:16;;;;;;;185.65;175.00;;;;;;;;;;5055934;28;20033;-89
2023/08/05 06:09:42;;;;;;;188.07;177.52;;;;;;;;;;5056094;28;20029;-90
2023/08/05 06:12:10;;;;;;;193.45;182.45;;;;;;;;;;5072207;28;20021;-92
2023/08/05 06:14:36;;;;;;;187.70;177.40;;;;;;;;;;5076421;28;20037;-91
2023/08/05 06:17:03;;;;;;;167.30;158.07;;;;;;;;;;5070540;28;20050;-91
2023/08/05 06:19:29;;;;;;;175.95;165.80;;;;;;;;;;5055706;28;20072;-90
2023/08/05 06:21:58;;;;;;;186.70;176.27;;;;;;;;;;5055967;28;20037;-92
2023/08/05 06:24:27;;;;;;;158.63;149.88;;;;;;;;;;5055450;28;20089;-93
2023/08/05 06:26:53;;;;;;;164.30;155.25;;;;;;;;;;5056119;28;20032;-92
2023/08/05 06:29:23;;;;;;;175.48;165.82;;;;;;;;;;5056118;28;20035;-95
2023/08/05 06:31:52;;;;;;;159.80;151.07;;;;;;;;;;5071747;28;20087;-94
2023/08/05 06:34:22;;;;;;;175.05;165.27;;;;;;;;;;5070879;28;20024;-94
2023/08/05 06:36:50;;;;;;;174.98;165.25;;;;;;;;;;5063004;28;20037;-93
2023/08/05 06:39:21;;;;;;;195.63;184.32;;;;;;;;;;5055982;28;20079;-96
2023/08/05 06:41:48;;;;;;;185.20;174.77;;;;;;;;;;5055848;28;20112;-94
2023/08/05 06:44:20;;;;;;;165.55;156.10;;;;;;;;;;5066733;28;20127;-96
2023/08/05 06:46:53;;;;;;;179.97;169.50;;;;;;;;;;5075486;28;20393;-94
2023/08/05 06:49:49;;;;;;;;;;;;;;;;;;;;;
2023/08/05 06:52:16;;;;;;;189.77;178.85;;;;;;;;;;5054203;28;20020;-94
2023/08/05 06:57:52;;;;;;;189.70;179.15;;;;;;;;;;5079767;28;20043;-92
2023/08/05 07:00:19;;;;;;;217.95;205.48;;;;;;;;;;5055269;28;20021;-93
2023/08/05 07:02:51;;;;;;;263.10;247.65;;;;;;;;;;5055322;28;20041;-92
2023/08/05 07:05:17;;;;;;;271.65;256.13;;;;;;;;;;5054859;28;20037;-91
2023/08/05 07:07:43;;;;;;;230.93;217.85;;;;;;;;;;5053849;28;20036;-90
2023/08/05 07:10:11;;;;;;;246.70;232.07;;;;;;;;;;5055770;28;20025;-90
2023/08/05 07:12:38;;;;;;;271.13;255.63;;;;;;;;;;5055240;28;20082;-89
2023/08/05 07:15:04;;;;;;;226.35;213.55;;;;;;;;;;5069995;28;20033;-90
2023/08/05 07:17:33;;;;;;;208.80;197.25;;;;;;;;;;5074434;28;20031;-91
2023/08/05 07:20:00;;;;;;;225.90;213.25;;;;;;;;;;5074893;28;20074;-90
2023/08/05 07:22:26;;;;;;;234.52;221.30;;;;;;;;;;5074175;28;20020;-91
2023/08/05 07:24:55;;;;;;;245.88;232.10;;;;;;;;;;5074321;28;20070;-89
2023/08/05 07:27:21;;;;;;;260.92;246.23;;;;;;;;;;5075094;28;20020;-91
2023/08/05 07:29:48;;;;;;;259.52;244.35;;;;;;;;;;5071271;28;20040;-91
2023/08/05 07:32:14;;;;;;;261.92;247.02;;;;;;;;;;5063135;28;20032;-91
2023/08/05 07:34:40;;;;;;;240.75;227.13;;;;;;;;;;5053607;28;20501;-89
2023/08/05 07:37:07;;;;;;;253.15;238.75;;;;;;;;;;5054261;28;20025;-89
2023/08/05 07:39:36;;;;;;;252.57;238.43;;;;;;;;;;5054333;28;20604;-92
2023/08/05 07:42:05;;;;;;;256.92;242.65;;;;;;;;;;5064264;28;20062;-92
2023/08/05 07:44:32;;;;;;;255.68;241.27;;;;;;;;;;5074250;28;20036;-92
2023/08/05 07:47:05;;;;;;;257.98;242.98;;;;;;;;;;5074092;28;20047;-91
2023/08/05 07:49:31;;;;;;;251.15;237.05;;;;;;;;;;5074457;28;20035;-93
2023/08/05 07:51:58;;;;;;;264.00;249.00;;;;;;;;;;5057255;28;20029;-93
2023/08/05 07:54:25;;;;;;;251.85;237.50;;;;;;;;;;5054260;28;20457;-93
2023/08/05 07:56:52;;;;;;;247.65;233.88;;;;;;;;;;5055941;28;20051;-90
2023/08/05 07:59:20;;;;;;;312.05;291.90;;;;;;;;;;5055716;28;20056;-91
2023/08/05 08:01:48;;;;;;;234.02;220.73;;;;;;;;;;5057132;28;20021;-91
2023/08/05 08:04:15;;;;;;;250.05;235.57;;;;;;;;;;5042144;28;20052;-92
2023/08/05 08:06:43;;;;;;;226.55;213.95;;;;;;;;;;5054472;28;20021;-93
2023/08/05 08:09:10;;;;;;;220.05;206.93;;;;;;;;;;5056887;28;20115;-92
2023/08/05 08:11:36;;;;;;;239.13;225.68;;;;;;;;;;5053993;28;20025;-92
2023/08/05 08:14:04;;;;;;;221.02;208.57;;;;;;;;;;5055443;28;20021;-92
2023/08/05 08:16:30;;;;;;;220.38;207.85;;;;;;;;;;5054938;28;20028;-92
2023/08/05 08:18:56;;;;;;;193.77;183.00;;;;;;;;;;5053255;28;20193;-90
2023/08/05 08:21:23;;;;;;;222.70;210.25;;;;;;;;;;5053352;28;20032;-92
2023/08/05 08:23:49;;;;;;;220.02;207.60;;;;;;;;;;5053240;28;20032;-93
2023/08/05 08:26:21;;;;;;;210.25;198.18;;;;;;;;;;5053429;28;20041;-91
2023/08/05 08:28:47;;;;;;;263.52;248.88;;;;;;;;;;5054623;28;20029;-92
2023/08/05 08:31:14;;;;;;;224.52;211.88;;;;;;;;;;5053362;28;20033;-91
2023/08/05 08:33:43;;;;;;;255.82;240.95;;;;;;;;;;5053370;28;20032;-92
2023/08/05 08:36:10;;;;;;;229.90;216.70;;;;;;;;;;5053997;28;20071;-91
2023/08/05 08:38:36;;;;;;;210.15;198.30;;;;;;;;;;5053727;28;20028;-92
2023/08/05 08:41:04;;;;;;;208.50;196.93;;;;;;;;;;5053853;28;20025;-92
2023/08/05 08:43:30;;;;;;;248.65;234.48;;;;;;;;;;5066784;28;20035;-92
2023/08/05 08:45:57;;;;;;;213.13;201.13;;;;;;;;;;5073088;28;20040;-92
2023/08/05 08:48:24;;;;;;;216.18;204.00;;;;;;;;;;5072919;28;20036;-91
2023/08/05 08:50:51;;;;;;;208.38;196.85;;;;;;;;;;5073032;28;20025;-93
2023/08/05 08:53:20;;;;;;;250.30;236.27;;;;;;;;;;5072934;28;20028;-91
2023/08/05 08:55:47;;;;;;;202.10;190.60;;;;;;;;;;5073016;28;20047;-92
2023/08/05 08:58:16;;;;;;;209.75;198.18;;;;;;;;;;5072924;28;20028;-92
2023/08/05 09:00:42;;;;;;;221.30;208.98;;;;;;;;;;5073533;28;20479;-92
2023/08/05 09:03:10;;;;;;;243.25;229.63;;;;;;;;;;5073326;28;20028;-92
2023/08/05 09:05:45;;;;;;;232.55;219.15;;;;;;;;;;5073466;28;20032;-92
2023/08/05 09:08:11;;;;;;;228.48;215.65;;;;;;;;;;5065833;28;20021;-91
2023/08/05 09:10:38;;;;;;;264.42;249.30;;;;;;;;;;5078405;28;20530;-92
2023/08/05 09:13:05;;;;;;;232.25;218.95;;;;;;;;;;5076305;28;20031;-92
2023/08/05 09:15:36;;;;;;;255.95;241.52;;;;;;;;;;5071767;28;20115;-91
2023/08/05 09:18:04;;;;;;;234.70;221.45;;;;;;;;;;5052800;28;20358;-92
2023/08/05 09:20:34;;;;;;;254.70;240.38;;;;;;;;;;5054531;28;20032;-92
2023/08/05 09:23:01;;;;;;;269.13;253.95;;;;;;;;;;5081864;28;20111;-93
2023/08/05 09:25:29;;;;;;;254.93;240.82;;;;;;;;;;5080647;28;20100;-91
2023/08/05 09:27:56;;;;;;;311.73;289.65;;;;;;;;;;5073504;28;20056;-92
2023/08/05 09:30:23;;;;;;;230.18;217.18;;;;;;;;;;5073072;28;20024;-90
2023/08/05 09:32:49;;;;;;;248.95;235.10;;;;;;;;;;5075157;28;20024;-92
2023/08/05 09:35:16;;;;;;;277.33;261.33;;;;;;;;;;5056455;28;20040;-88
2023/08/05 09:37:51;;;;;;;227.60;215.02;;;;;;;;;;5056669;28;20033;-92
2023/08/05 09:40:19;;;;;;;225.98;212.52;;;;;;;;;;5056639;28;20033;-91
2023/08/05 09:42:59;;;;;;;274.17;258.23;;;;;;;;;;5056588;28;20115;-92
2023/08/05 09:45:25;;;;;;;275.33;259.50;;;;;;;;;;5063533;28;20028;-92
2023/08/05 09:48:02;;;;;;;198.48;187.60;;;;;;;;;;5101155;28;20032;-92
2023/08/05 09:50:30;;;;;;;238.40;224.80;;;;;;;;;;5079317;28;20056;-91
2023/08/05 09:52:59;;;;;;;247.30;233.20;;;;;;;;;;5072430;28;20025;-92
2023/08/05 09:55:29;;;;;;;225.30;212.75;;;;;;;;;;5059378;28;20103;-91
2023/08/05 09:57:56;;;;;;;253.73;238.80;;;;;;;;;;5059658;28;20036;-90
2023/08/05 10:00:23;;;;;;;242.93;229.10;;;;;;;;;;5059206;28;20113;-90
2023/08/05 10:02:49;;;;;;;249.10;234.70;;;;;;;;;;5059162;28;20111;-92
2023/08/05 10:05:15;;;;;;;226.50;213.68;;;;;;;;;;5059157;28;20075;-92
2023/08/05 10:07:42;;;;;;;214.95;202.93;;;;;;;;;;5067980;28;20024;-91
2023/08/05 10:10:09;;;;;;;248.00;234.02;;;;;;;;;;5079706;28;20080;-93
2023/08/05 10:12:38;;;;;;;211.20;198.23;;;;;;;;;;5059783;28;20515;-92
2023/08/05 10:15:05;;;;;;;277.63;261.70;;;;;;;;;;5064983;28;20165;-92
2023/08/05 10:17:31;;;;;;;261.00;246.25;;;;;;;;;;5070352;28;20028;-92
2023/08/05 10:20:00;;;;;;;198.95;187.93;;;;;;;;;;5079042;28;20024;-91
2023/08/05 10:22:27;;;;;;;209.80;198.10;;;;;;;;;;5079147;28;20034;-92
2023/08/05 10:24:57;;;;;;;211.18;198.57;;;;;;;;;;5079322;28;20117;-91
2023/08/05 10:27:34;;;;;;;201.90;190.75;;;;;;;;;;5079150;28;20105;-92
2023/08/05 10:30:06;;;;;;;192.93;182.15;;;;;;;;;;5058815;28;20037;-92
2023/08/05 10:32:33;;;;;;;188.18;177.73;;;;;;;;;;5058729;28;20496;-91
2023/08/05 10:35:18;;;;;;;175.23;165.35;;;;;;;;;;5058400;28;20119;-92
2023/08/05 10:37:48;;;;;;;202.45;190.82;;;;;;;;;;5058825;28;20033;-93
2023/08/05 10:40:17;;;;;;;172.95;163.43;;;;;;;;;;5058801;28;20025;-92
2023/08/05 10:42:43;;;;;;;177.57;167.63;;;;;;;;;;5058343;28;20025;-92
2023/08/05 10:45:09;;;;;;;162.00;152.95;;;;;;;;;;5058336;28;20033;-91
2023/08/05 10:47:35;;;;;;;233.95;220.43;;;;;;;;;;5054863;28;20055;-92
2023/08/05 10:50:13;;;;;;;181.98;171.88;;;;;;;;;;5054732;28;20025;-92
2023/08/05 10:52:43;;;;;;;167.35;157.98;;;;;;;;;;5055022;28;20025;-93
2023/08/05 10:55:11;;;;;;;147.00;138.70;;;;;;;;;;5064288;28;20028;-91
2023/08/05 10:57:40;;;;;;;177.63;167.60;;;;;;;;;;5075137;28;20025;-90
2023/08/05 11:00:07;;;;;;;153.40;144.77;;;;;;;;;;5075549;28;20032;-91
2023/08/05 11:02:37;;;;;;;159.13;150.18;;;;;;;;;;5074906;28;20043;-92
2023/08/05 11:05:07;;;;;;;166.70;157.48;;;;;;;;;;5074901;28;20044;-92
2023/08/05 11:07:36;;;;;;;160.05;150.88;;;;;;;;;;5072985;28;20052;-91
2023/08/05 11:10:04;;;;;;;153.25;144.57;;;;;;;;;;5054726;28;20024;-92
2023/08/05 11:12:30;;;;;;;146.85;138.40;;;;;;;;;;5054525;28;20116;-92
2023/08/05 11:14:59;;;;;;;153.82;144.85;;;;;;;;;;5055189;28;20029;-92
2023/08/05 11:17:26;;;;;;;208.52;196.55;;;;;;;;;;5069693;28;20095;-92
2023/08/05 11:19:52;;;;;;;145.32;136.80;;;;;;;;;;5063447;28;20061;-91
2023/08/05 11:22:23;;;;;;;136.80;128.98;;;;;;;;;;5054454;28;20021;-92
2023/08/05 11:24:55;;;;;;;156.63;147.75;;;;;;;;;;5054602;28;20385;-91
2023/08/05 11:27:28;;;;;;;133.88;126.22;;;;;;;;;;5054265;28;20116;-91
2023/08/05 11:29:54;;;;;;;140.38;132.45;;;;;;;;;;5054575;28;20117;-92
2023/08/05 11:32:21;;;;;;;138.25;130.40;;;;;;;;;;5060519;28;20025;-90
2023/08/05 11:34:48;;;;;;;126.72;119.55;;;;;;;;;;5074270;28;20039;-92
2023/08/05 11:37:15;;;;;;;118.40;111.75;;;;;;;;;;5074161;28;20021;-92
2023/08/05 11:39:41;;;;;;;167.07;157.23;;;;;;;;;;5073976;28;20548;-91
2023/08/05 11:42:07;;;;;;;182.50;171.90;;;;;;;;;;5071186;28;20024;-92
2023/08/05 11:44:33;;;;;;;149.40;140.75;;;;;;;;;;5054258;28;20543;-91
2023/08/05 11:47:03;;;;;;;135.88;128.10;;;;;;;;;;5053792;28;20049;-91
2023/08/05 11:49:29;;;;;;;165.90;156.45;;;;;;;;;;5054282;28;20082;-92
2023/08/05 11:51:55;;;;;;;171.23;161.45;;;;;;;;;;5053748;28;20029;-91
2023/08/05 11:54:28;;;;;;;200.95;189.32;;;;;;;;;;5053465;28;20145;-93
2023/08/05 11:56:54;;;;;;;;;;;;;;;;;;5053968;28;20025;-92
2023/08/05 11:59:36;;;;;;;150.55;141.80;;;;;;;;;;5054095;28;19912;-92
2023/08/05 12:02:03;;;;;;;144.88;136.57;;;;;;;;;;5053509;28;20029;-92
2023/08/05 12:04:29;;;;;;;163.15;153.57;;;;;;;;;;5053591;28;20462;-91
2023/08/05 12:06:55;;;;;;;189.02;178.23;;;;;;;;;;5054072;28;20113;-91
2023/08/05 12:09:21;;;;;;;134.88;127.25;;;;;;;;;;5053433;28;20115;-91
2023/08/05 12:11:47;;;;;;;217.57;204.98;;;;;;;;;;5054889;28;20024;-92
2023/08/05 12:14:13;;;;;;;223.77;210.90;;;;;;;;;;5053567;28;20025;-92
2023/08/05 12:16:43;;;;;;;199.25;187.75;;;;;;;;;;5055587;28;20036;-91
2023/08/05 12:19:10;;;;;;;208.10;196.05;;;;;;;;;;5073394;28;20458;-92
2023/08/05 12:21:36;;;;;;;187.20;176.55;;;;;;;;;;5073747;28;20028;-90
2023/08/05 12:24:03;;;;;;;187.73;176.63;;;;;;;;;;5073658;28;20020;-92
2023/08/05 12:26:29;;;;;;;250.15;235.40;;;;;;;;;;5073218;28;20480;-91
2023/08/05 12:28:55;;;;;;;235.77;222.00;;;;;;;;;;5073338;28;20052;-91
2023/08/05 12:31:21;;;;;;;225.55;212.52;;;;;;;;;;5073527;28;20033;-90
2023/08/05 12:33:47;;;;;;;264.77;248.88;;;;;;;;;;5073249;28;20124;-91
2023/08/05 12:36:13;;;;;;;247.23;232.68;;;;;;;;;;5073655;28;20035;-92
2023/08/05 12:38:40;;;;;;;233.77;219.98;;;;;;;;;;5057261;28;20063;-92
2023/08/05 12:41:11;;;;;;;242.07;228.10;;;;;;;;;;5080701;28;20108;-92
2023/08/05 12:43:37;;;;;;;197.35;186.18;;;;;;;;;;5084711;28;20477;-92
2023/08/05 12:46:03;;;;;;;208.07;195.95;;;;;;;;;;5067804;28;20077;-92
2023/08/05 12:48:29;;;;;;;236.15;222.52;;;;;;;;;;5057504;28;20025;-92
2023/08/05 12:50:55;;;;;;;216.45;203.88;;;;;;;;;;5052972;28;20040;-91
2023/08/05 12:53:21;;;;;;;210.45;198.52;;;;;;;;;;5052967;28;20017;-92
2023/08/05 12:55:48;;;;;;;229.68;216.15;;;;;;;;;;5067920;28;20040;-92
2023/08/05 12:58:14;;;;;;;244.15;230.13;;;;;;;;;;5064422;28;20056;-91
2023/08/05 13:00:43;;;;;;;237.77;224.13;;;;;;;;;;5064941;28;20041;-92
2023/08/05 13:03:09;;;;;;;215.68;203.10;;;;;;;;;;5065868;28;20025;-90
2023/08/05 13:05:36;;;;;;;262.58;246.60;;;;;;;;;;5065867;28;20043;-91
2023/08/05 13:08:02;;;;;;;259.45;243.50;;;;;;;;;;5062051;28;20032;-92
2023/08/05 13:10:29;;;;;;;225.73;212.35;;;;;;;;;;5057959;28;20065;-90
2023/08/05 13:12:55;;;;;;;239.52;224.95;;;;;;;;;;5057388;28;20029;-92
2023/08/05 13:15:21;;;;;;;232.43;218.90;;;;;;;;;;5078081;28;20005;-91
2023/08/05 13:17:47;;;;;;;234.13;220.77;;;;;;;;;;5085224;28;20230;-91
2023/08/05 13:20:14;;;;;;;235.60;221.90;;;;;;;;;;5077209;28;20036;-91
2023/08/05 13:22:40;;;;;;;203.35;191.90;;;;;;;;;;5076637;28;20434;-92
2023/08/05 13:25:06;;;;;;;172.38;162.98;;;;;;;;;;5076837;28;20037;-89
2023/08/05 13:27:33;;;;;;;179.23;169.40;;;;;;;;;;5059703;28;20056;-92
2023/08/05 13:29:59;;;;;;;231.75;218.30;;;;;;;;;;5056639;28;20102;-90
2023/08/05 13:32:25;;;;;;;156.63;147.80;;;;;;;;;;5056440;28;20029;-91
2023/08/05 13:34:52;;;;;;;216.38;204.27;;;;;;;;;;5056513;28;20021;-92
2023/08/05 13:37:18;;;;;;;146.57;138.25;;;;;;;;;;5061338;28;20039;-91
2023/08/05 13:39:51;;;;;;;175.63;165.77;;;;;;;;;;5076218;28;20032;-92
2023/08/05 13:42:17;;;;;;;192.33;181.27;;;;;;;;;;5076303;28;20029;-90
2023/08/05 13:44:43;;;;;;;176.52;166.82;;;;;;;;;;5076058;28;20317;-92
2023/08/05 13:47:09;;;;;;;195.15;184.45;;;;;;;;;;5076106;28;20068;-90
2023/08/05 13:49:35;;;;;;;201.80;190.18;;;;;;;;;;5061994;28;20036;-92
2023/08/05 13:52:02;;;;;;;218.40;205.88;;;;;;;;;;5056147;28;20032;-91
2023/08/05 13:54:28;;;;;;;228.65;215.73;;;;;;;;;;5056098;28;20482;-91
2023/08/05 13:56:54;;;;;;;265.55;250.18;;;;;;;;;;5055918;28;20028;-91
2023/08/05 13:59:21;;;;;;;218.07;205.90;;;;;;;;;;5074900;28;20029;-92
2023/08/05 14:01:47;;;;;;;250.45;235.73;;;;;;;;;;5076759;28;20388;-91
2023/08/05 14:04:13;;;;;;;214.02;202.00;;;;;;;;;;5075882;28;20473;-91
2023/08/05 14:06:39;;;;;;;233.07;219.95;;;;;;;;;;5076007;28;20048;-90
2023/08/05 14:09:07;;;;;;;257.23;242.25;;;;;;;;;;5060109;28;20056;-92
2023/08/05 14:11:34;;;;;;;194.45;183.35;;;;;;;;;;5055867;28;20167;-92